sensor_id;sensor_type;location;lat;lon;timestamp;temperature;humidity
31735;DHT22;18313;48.518;9.124;2023-04-29T00:01:24;12.50;99.90
31735;DHT22;18313;48.518;9.124;2023-04-29T00:03:54;12.40;99.90
31735;DHT22;18313;48.518;9.124;2023-04-29T00:06:22;12.40;99.90
31735;DHT22;18313;48.518;9.124;2023-04-29T00:08:49;12.40;99.90
31735;DHT22;18313;48.518;9.124;2023-04-29T00:11:17;12.40;99.90
31735;DHT22;18313;48.518;9.124;2023-04-29T00:13:44;12.40;99.90
31735;DHT22;18313;48.518;9.124;2023-04-29T00:16:12;12.40;99.90
31735;DHT22;18313;48.518;9.124;2023-04-29T00:18:39;12.40;99.90
31735;DHT22;18313;48.518;9.124;2023-04-29T00:21:06;12.50;99.90
31735;DHT22;18313;48.518;9.124;2023-04-29T00:23:33;12.50;99.90
31735;DHT22;18313;48.518;9.124;2023-04-29T00:26:00;12.50;99.90
31735;DHT22;18313;48.518;9.124;2023-04-29T00:28:27;12.50;99.90
31735;DHT22;18313;48.518;9.124;2023-04-29T00:30:55;12.50;99.90
31735;DHT22;18313;48.518;9.124;2023-04-29T00:33:22;12.40;99.90
31735;DHT22;18313;48.518;9.124;2023-04-29T00:35:49;12.40;99.90
31735;DHT22;18313;48.518;9.124;2023-04-29T00:38:17;12.40;99.90
31735;DHT22;18313;48.518;9.124;2023-04-29T00:40:44;12.50;99.90
31735;DHT22;18313;48.518;9.124;2023-04-29T00:43:12;12.50;99.90
31735;DHT22;18313;48.518;9.124;2023-04-29T00:45:39;12.40;99.90
31735;DHT22;18313;48.518;9.124;2023-04-29T00:48:06;12.40;99.90
31735;DHT22;18313;48.518;9.124;2023-04-29T00:50:34;12.40;99.90
31735;DHT22;18313;48.518;9.124;2023-04-29T00:53:03;12.30;99.90
31735;DHT22;18313;48.518;9.124;2023-04-29T00:55:32;12.30;99.90
31735;DHT22;18313;48.518;9.124;2023-04-29T00:57:59;12.30;99.90
31735;DHT22;18313;48.518;9.124;2023-04-29T01:00:29;12.30;99.90
31735;DHT22;18313;48.518;9.124;2023-04-29T01:02:57;12.30;99.90
31735;DHT22;18313;48.518;9.124;2023-04-29T01:05:26;12.20;99.90
31735;DHT22;18313;48.518;9.124;2023-04-29T01:08:29;12.20;99.90
31735;DHT22;18313;48.518;9.124;2023-04-29T01:11:07;12.10;99.90
31735;DHT22;18313;48.518;9.124;2023-04-29T01:13:45;12.10;99.90
31735;DHT22;18313;48.518;9.124;2023-04-29T01:16:25;12.00;99.90
31735;DHT22;18313;48.518;9.124;2023-04-29T01:18:57;12.00;99.90
31735;DHT22;18313;48.518;9.124;2023-04-29T01:21:25;12.00;99.90
31735;DHT22;18313;48.518;9.124;2023-04-29T01:23:52;11.90;99.90
31735;DHT22;18313;48.518;9.124;2023-04-29T01:26:22;11.90;99.90
31735;DHT22;18313;48.518;9.124;2023-04-29T01:31:45;11.90;99.90
31735;DHT22;18313;48.518;9.124;2023-04-29T01:34:36;11.90;99.90
31735;DHT22;18313;48.518;9.124;2023-04-29T01:40:54;12.10;99.90
31735;DHT22;18313;48.518;9.124;2023-04-29T01:43:01;12.10;99.90
31735;DHT22;18313;48.518;9.124;2023-04-29T01:45:31;12.00;99.90
31735;DHT22;18313;48.518;9.124;2023-04-29T01:48:00;12.00;99.90
31735;DHT22;18313;48.518;9.124;2023-04-29T01:50:28;11.90;99.90
31735;DHT22;18313;48.518;9.124;2023-04-29T01:52:56;11.90;99.90
31735;DHT22;18313;48.518;9.124;2023-04-29T01:55:24;11.90;99.90
31735;DHT22;18313;48.518;9.124;2023-04-29T01:57:51;11.90;99.90
31735;DHT22;18313;48.518;9.124;2023-04-29T02:00:19;11.90;99.90
31735;DHT22;18313;48.518;9.124;2023-04-29T02:02:46;11.80;99.90
31735;DHT22;18313;48.518;9.124;2023-04-29T02:05:13;11.90;99.90
31735;DHT22;18313;48.518;9.124;2023-04-29T02:07:40;11.90;99.90
31735;DHT22;18313;48.518;9.124;2023-04-29T02:10:08;11.80;99.90
31735;DHT22;18313;48.518;9.124;2023-04-29T02:12:35;11.70;99.90
31735;DHT22;18313;48.518;9.124;2023-04-29T02:15:02;11.70;99.90
31735;DHT22;18313;48.518;9.124;2023-04-29T02:17:30;11.70;99.90
31735;DHT22;18313;48.518;9.124;2023-04-29T02:19:59;11.70;99.90
31735;DHT22;18313;48.518;9.124;2023-04-29T02:22:26;11.70;99.90
31735;DHT22;18313;48.518;9.124;2023-04-29T02:24:53;11.70;99.90
31735;DHT22;18313;48.518;9.124;2023-04-29T02:27:20;11.70;99.90
31735;DHT22;18313;48.518;9.124;2023-04-29T02:29:49;11.70;99.90
31735;DHT22;18313;48.518;9.124;2023-04-29T02:32:17;11.70;99.90
31735;DHT22;18313;48.518;9.124;2023-04-29T02:34:46;11.70;99.90
31735;DHT22;18313;48.518;9.124;2023-04-29T02:37:13;11.70;99.90
31735;DHT22;18313;48.518;9.124;2023-04-29T02:39:41;11.70;99.90
31735;DHT22;18313;48.518;9.124;2023-04-29T02:42:08;11.70;99.90
31735;DHT22;18313;48.518;9.124;2023-04-29T02:44:36;11.70;99.90
31735;DHT22;18313;48.518;9.124;2023-04-29T02:47:03;11.60;99.90
31735;DHT22;18313;48.518;9.124;2023-04-29T02:49:30;11.60;99.90
31735;DHT22;18313;48.518;9.124;2023-04-29T02:51:57;11.70;99.90
31735;DHT22;18313;48.518;9.124;2023-04-29T02:54:24;11.80;99.90
31735;DHT22;18313;48.518;9.124;2023-04-29T02:56:52;11.80;99.90
31735;DHT22;18313;48.518;9.124;2023-04-29T02:59:19;11.80;99.90
31735;DHT22;18313;48.518;9.124;2023-04-29T03:01:46;11.70;99.90
31735;DHT22;18313;48.518;9.124;2023-04-29T03:04:13;11.70;99.90
31735;DHT22;18313;48.518;9.124;2023-04-29T03:06:41;11.70;99.90
31735;DHT22;18313;48.518;9.124;2023-04-29T03:09:09;11.70;99.90
31735;DHT22;18313;48.518;9.124;2023-04-29T03:11:36;11.70;99.90
31735;DHT22;18313;48.518;9.124;2023-04-29T03:14:04;11.70;99.90
31735;DHT22;18313;48.518;9.124;2023-04-29T03:16:32;11.70;99.90
31735;DHT22;18313;48.518;9.124;2023-04-29T03:18:59;11.60;99.90
31735;DHT22;18313;48.518;9.124;2023-04-29T03:21:26;11.60;99.90
31735;DHT22;18313;48.518;9.124;2023-04-29T03:23:53;11.50;99.90
31735;DHT22;18313;48.518;9.124;2023-04-29T03:26:20;11.50;99.90
31735;DHT22;18313;48.518;9.124;2023-04-29T03:28:50;11.40;99.90
31735;DHT22;18313;48.518;9.124;2023-04-29T03:31:17;11.40;99.90
31735;DHT22;18313;48.518;9.124;2023-04-29T03:33:46;11.40;99.90
31735;DHT22;18313;48.518;9.124;2023-04-29T03:36:13;11.40;99.90
31735;DHT22;18313;48.518;9.124;2023-04-29T03:38:41;11.40;99.90
31735;DHT22;18313;48.518;9.124;2023-04-29T03:41:08;11.40;99.90
31735;DHT22;18313;48.518;9.124;2023-04-29T03:43:35;11.40;99.90
31735;DHT22;18313;48.518;9.124;2023-04-29T03:46:02;11.40;99.90
31735;DHT22;18313;48.518;9.124;2023-04-29T03:48:30;11.40;99.90
31735;DHT22;18313;48.518;9.124;2023-04-29T03:50:57;11.40;99.90
31735;DHT22;18313;48.518;9.124;2023-04-29T03:53:24;11.40;99.90
31735;DHT22;18313;48.518;9.124;2023-04-29T03:55:52;11.40;99.90
31735;DHT22;18313;48.518;9.124;2023-04-29T03:58:19;11.40;99.90
31735;DHT22;18313;48.518;9.124;2023-04-29T04:00:46;11.40;99.90
31735;DHT22;18313;48.518;9.124;2023-04-29T04:03:13;11.50;99.90
31735;DHT22;18313;48.518;9.124;2023-04-29T04:05:41;11.50;99.90
31735;DHT22;18313;48.518;9.124;2023-04-29T04:08:08;11.50;99.90
31735;DHT22;18313;48.518;9.124;2023-04-29T04:10:36;11.40;99.90
31735;DHT22;18313;48.518;9.124;2023-04-29T04:13:03;11.40;99.90
31735;DHT22;18313;48.518;9.124;2023-04-29T04:15:30;11.30;99.90
31735;DHT22;18313;48.518;9.124;2023-04-29T04:17:57;11.40;99.90
31735;DHT22;18313;48.518;9.124;2023-04-29T04:20:25;11.30;99.90
31735;DHT22;18313;48.518;9.124;2023-04-29T04:22:52;11.40;99.90
31735;DHT22;18313;48.518;9.124;2023-04-29T04:25:20;11.60;99.90
31735;DHT22;18313;48.518;9.124;2023-04-29T04:27:47;11.70;99.90
31735;DHT22;18313;48.518;9.124;2023-04-29T04:30:15;11.70;99.90
31735;DHT22;18313;48.518;9.124;2023-04-29T04:32:42;11.70;99.90
31735;DHT22;18313;48.518;9.124;2023-04-29T04:35:09;11.70;99.90
31735;DHT22;18313;48.518;9.124;2023-04-29T04:37:36;11.70;99.90
31735;DHT22;18313;48.518;9.124;2023-04-29T04:40:04;11.70;99.90
31735;DHT22;18313;48.518;9.124;2023-04-29T04:42:31;11.60;99.90
31735;DHT22;18313;48.518;9.124;2023-04-29T04:44:58;11.50;99.90
31735;DHT22;18313;48.518;9.124;2023-04-29T04:47:25;11.50;99.90
31735;DHT22;18313;48.518;9.124;2023-04-29T04:49:53;11.50;99.90
31735;DHT22;18313;48.518;9.124;2023-04-29T04:52:21;11.50;99.90
31735;DHT22;18313;48.518;9.124;2023-04-29T04:54:48;11.40;99.90
31735;DHT22;18313;48.518;9.124;2023-04-29T04:57:15;11.40;99.90
31735;DHT22;18313;48.518;9.124;2023-04-29T04:59:42;11.40;99.90
31735;DHT22;18313;48.518;9.124;2023-04-29T05:02:10;11.40;99.90
31735;DHT22;18313;48.518;9.124;2023-04-29T05:04:37;11.40;99.90
31735;DHT22;18313;48.518;9.124;2023-04-29T05:07:04;11.50;99.90
31735;DHT22;18313;48.518;9.124;2023-04-29T05:09:31;11.60;99.90
31735;DHT22;18313;48.518;9.124;2023-04-29T05:11:58;11.60;99.90
31735;DHT22;18313;48.518;9.124;2023-04-29T05:14:26;11.70;99.90
31735;DHT22;18313;48.518;9.124;2023-04-29T05:16:58;11.80;99.90
31735;DHT22;18313;48.518;9.124;2023-04-29T05:19:25;12.00;99.90
31735;DHT22;18313;48.518;9.124;2023-04-29T05:21:52;12.20;99.90
31735;DHT22;18313;48.518;9.124;2023-04-29T05:24:20;12.40;99.90
31735;DHT22;18313;48.518;9.124;2023-04-29T05:26:47;12.50;99.90
31735;DHT22;18313;48.518;9.124;2023-04-29T05:29:17;12.60;99.90
31735;DHT22;18313;48.518;9.124;2023-04-29T05:31:44;12.60;99.90
31735;DHT22;18313;48.518;9.124;2023-04-29T05:34:12;12.60;99.90
31735;DHT22;18313;48.518;9.124;2023-04-29T05:36:39;12.70;99.90
31735;DHT22;18313;48.518;9.124;2023-04-29T05:39:06;12.70;99.90
31735;DHT22;18313;48.518;9.124;2023-04-29T05:41:33;12.60;99.90
31735;DHT22;18313;48.518;9.124;2023-04-29T05:44:00;12.60;99.90
31735;DHT22;18313;48.518;9.124;2023-04-29T05:46:27;12.70;99.90
31735;DHT22;18313;48.518;9.124;2023-04-29T05:48:54;12.70;99.90
31735;DHT22;18313;48.518;9.124;2023-04-29T05:51:21;12.60;99.90
31735;DHT22;18313;48.518;9.124;2023-04-29T05:53:48;12.70;99.90
31735;DHT22;18313;48.518;9.124;2023-04-29T05:56:16;12.70;99.90
31735;DHT22;18313;48.518;9.124;2023-04-29T05:58:43;12.80;99.90
31735;DHT22;18313;48.518;9.124;2023-04-29T06:01:11;12.90;99.90
31735;DHT22;18313;48.518;9.124;2023-04-29T06:03:39;13.00;99.90
31735;DHT22;18313;48.518;9.124;2023-04-29T06:06:08;12.90;99.90
31735;DHT22;18313;48.518;9.124;2023-04-29T06:08:35;12.90;99.90
31735;DHT22;18313;48.518;9.124;2023-04-29T06:11:02;13.00;99.90
31735;DHT22;18313;48.518;9.124;2023-04-29T06:13:31;13.00;99.90
31735;DHT22;18313;48.518;9.124;2023-04-29T06:15:59;12.90;99.90
31735;DHT22;18313;48.518;9.124;2023-04-29T06:18:26;13.00;99.90
31735;DHT22;18313;48.518;9.124;2023-04-29T06:20:53;13.00;99.90
31735;DHT22;18313;48.518;9.124;2023-04-29T06:23:20;13.00;99.90
31735;DHT22;18313;48.518;9.124;2023-04-29T06:25:47;13.10;99.90
31735;DHT22;18313;48.518;9.124;2023-04-29T06:28:17;13.20;99.90
31735;DHT22;18313;48.518;9.124;2023-04-29T06:30:44;13.20;99.90
31735;DHT22;18313;48.518;9.124;2023-04-29T06:33:12;13.30;99.90
31735;DHT22;18313;48.518;9.124;2023-04-29T06:35:39;13.40;99.90
31735;DHT22;18313;48.518;9.124;2023-04-29T06:38:09;13.30;99.90
31735;DHT22;18313;48.518;9.124;2023-04-29T06:40:36;13.40;99.90
31735;DHT22;18313;48.518;9.124;2023-04-29T06:43:03;13.50;99.90
31735;DHT22;18313;48.518;9.124;2023-04-29T06:45:31;13.50;99.90
31735;DHT22;18313;48.518;9.124;2023-04-29T06:47:58;13.50;99.90
31735;DHT22;18313;48.518;9.124;2023-04-29T06:50:26;13.60;99.90
31735;DHT22;18313;48.518;9.124;2023-04-29T06:52:54;13.70;99.90
31735;DHT22;18313;48.518;9.124;2023-04-29T06:55:22;13.80;99.90
31735;DHT22;18313;48.518;9.124;2023-04-29T06:57:49;13.90;99.90
31735;DHT22;18313;48.518;9.124;2023-04-29T07:00:16;14.00;99.90
31735;DHT22;18313;48.518;9.124;2023-04-29T07:02:45;14.00;99.90
31735;DHT22;18313;48.518;9.124;2023-04-29T07:05:12;14.20;99.90
31735;DHT22;18313;48.518;9.124;2023-04-29T07:07:39;14.20;99.90
31735;DHT22;18313;48.518;9.124;2023-04-29T07:10:06;14.30;99.90
31735;DHT22;18313;48.518;9.124;2023-04-29T07:12:33;14.50;99.90
31735;DHT22;18313;48.518;9.124;2023-04-29T07:15:00;14.60;99.90
31735;DHT22;18313;48.518;9.124;2023-04-29T07:17:29;14.80;99.90
31735;DHT22;18313;48.518;9.124;2023-04-29T07:19:57;14.90;99.90
31735;DHT22;18313;48.518;9.124;2023-04-29T07:22:24;14.90;99.90
31735;DHT22;18313;48.518;9.124;2023-04-29T07:24:54;15.00;99.90
31735;DHT22;18313;48.518;9.124;2023-04-29T07:27:22;15.20;99.90
31735;DHT22;18313;48.518;9.124;2023-04-29T07:29:50;15.40;99.90
31735;DHT22;18313;48.518;9.124;2023-04-29T07:32:17;15.60;99.90
31735;DHT22;18313;48.518;9.124;2023-04-29T07:34:44;15.70;99.90
31735;DHT22;18313;48.518;9.124;2023-04-29T07:37:11;15.80;99.90
31735;DHT22;18313;48.518;9.124;2023-04-29T07:39:38;15.70;99.90
31735;DHT22;18313;48.518;9.124;2023-04-29T07:42:07;15.80;99.90
31735;DHT22;18313;48.518;9.124;2023-04-29T07:44:34;15.90;99.90
31735;DHT22;18313;48.518;9.124;2023-04-29T07:47:02;16.10;99.90
31735;DHT22;18313;48.518;9.124;2023-04-29T07:49:29;16.20;99.90
31735;DHT22;18313;48.518;9.124;2023-04-29T07:51:56;16.20;99.90
31735;DHT22;18313;48.518;9.124;2023-04-29T07:54:22;16.10;99.90
31735;DHT22;18313;48.518;9.124;2023-04-29T07:56:50;16.10;99.90
31735;DHT22;18313;48.518;9.124;2023-04-29T07:59:17;16.10;99.90
31735;DHT22;18313;48.518;9.124;2023-04-29T08:01:44;16.00;99.90
31735;DHT22;18313;48.518;9.124;2023-04-29T08:04:11;16.00;99.90
31735;DHT22;18313;48.518;9.124;2023-04-29T08:06:39;16.20;99.90
31735;DHT22;18313;48.518;9.124;2023-04-29T08:09:07;16.50;99.90
31735;DHT22;18313;48.518;9.124;2023-04-29T08:11:34;16.60;99.90
31735;DHT22;18313;48.518;9.124;2023-04-29T08:14:01;16.70;99.90
31735;DHT22;18313;48.518;9.124;2023-04-29T08:16:28;16.70;99.90
31735;DHT22;18313;48.518;9.124;2023-04-29T08:18:56;16.70;99.90
31735;DHT22;18313;48.518;9.124;2023-04-29T08:21:23;16.80;99.90
31735;DHT22;18313;48.518;9.124;2023-04-29T08:23:50;17.10;99.90
31735;DHT22;18313;48.518;9.124;2023-04-29T08:26:17;17.20;99.90
31735;DHT22;18313;48.518;9.124;2023-04-29T08:28:44;17.20;99.90
31735;DHT22;18313;48.518;9.124;2023-04-29T08:31:18;17.30;99.90
31735;DHT22;18313;48.518;9.124;2023-04-29T08:33:46;17.30;99.90
31735;DHT22;18313;48.518;9.124;2023-04-29T08:36:13;17.40;99.90
31735;DHT22;18313;48.518;9.124;2023-04-29T08:38:40;17.60;99.90
31735;DHT22;18313;48.518;9.124;2023-04-29T08:41:07;17.80;99.90
31735;DHT22;18313;48.518;9.124;2023-04-29T08:43:35;18.00;99.90
31735;DHT22;18313;48.518;9.124;2023-04-29T08:46:03;18.10;99.90
31735;DHT22;18313;48.518;9.124;2023-04-29T08:48:31;18.20;99.90
31735;DHT22;18313;48.518;9.124;2023-04-29T08:50:58;18.40;99.90
31735;DHT22;18313;48.518;9.124;2023-04-29T08:53:27;18.60;99.90
31735;DHT22;18313;48.518;9.124;2023-04-29T08:55:57;18.80;99.90
31735;DHT22;18313;48.518;9.124;2023-04-29T08:58:27;18.90;99.90
31735;DHT22;18313;48.518;9.124;2023-04-29T09:00:55;18.80;99.90
31735;DHT22;18313;48.518;9.124;2023-04-29T09:03:30;19.00;99.90
31735;DHT22;18313;48.518;9.124;2023-04-29T09:06:01;19.40;99.90
31735;DHT22;18313;48.518;9.124;2023-04-29T09:08:29;19.70;99.90
31735;DHT22;18313;48.518;9.124;2023-04-29T09:10:57;19.80;99.90
31735;DHT22;18313;48.518;9.124;2023-04-29T09:13:29;19.80;99.30
31735;DHT22;18313;48.518;9.124;2023-04-29T09:15:56;19.80;99.90
31735;DHT22;18313;48.518;9.124;2023-04-29T09:18:44;19.90;99.90
31735;DHT22;18313;48.518;9.124;2023-04-29T09:23:44;20.10;99.90
31735;DHT22;18313;48.518;9.124;2023-04-29T09:26:13;20.10;99.90
31735;DHT22;18313;48.518;9.124;2023-04-29T09:28:41;20.20;99.90
31735;DHT22;18313;48.518;9.124;2023-04-29T09:31:11;20.40;99.90
31735;DHT22;18313;48.518;9.124;2023-04-29T09:34:07;20.60;99.80
31735;DHT22;18313;48.518;9.124;2023-04-29T09:36:48;20.90;98.30
31735;DHT22;18313;48.518;9.124;2023-04-29T09:39:20;20.90;99.90
31735;DHT22;18313;48.518;9.124;2023-04-29T09:44:25;21.00;98.10
31735;DHT22;18313;48.518;9.124;2023-04-29T09:47:02;21.20;98.90
31735;DHT22;18313;48.518;9.124;2023-04-29T09:49:40;21.60;98.50
31735;DHT22;18313;48.518;9.124;2023-04-29T09:52:11;21.80;96.10
31735;DHT22;18313;48.518;9.124;2023-04-29T09:54:40;21.10;97.20
31735;DHT22;18313;48.518;9.124;2023-04-29T09:57:10;20.60;98.30
31735;DHT22;18313;48.518;9.124;2023-04-29T09:59:39;20.60;98.20
31735;DHT22;18313;48.518;9.124;2023-04-29T10:02:16;20.60;98.90
31735;DHT22;18313;48.518;9.124;2023-04-29T10:04:52;20.80;97.90
31735;DHT22;18313;48.518;9.124;2023-04-29T10:07:20;20.80;98.40
31735;DHT22;18313;48.518;9.124;2023-04-29T10:09:48;21.00;97.60
31735;DHT22;18313;48.518;9.124;2023-04-29T10:12:18;21.10;97.80
31735;DHT22;18313;48.518;9.124;2023-04-29T10:17:58;21.50;97.00
31735;DHT22;18313;48.518;9.124;2023-04-29T10:20:28;21.80;96.20
31735;DHT22;18313;48.518;9.124;2023-04-29T10:22:55;22.20;96.40
31735;DHT22;18313;48.518;9.124;2023-04-29T10:25:23;22.30;96.20
31735;DHT22;18313;48.518;9.124;2023-04-29T10:27:51;22.40;95.20
31735;DHT22;18313;48.518;9.124;2023-04-29T10:30:20;22.50;94.50
31735;DHT22;18313;48.518;9.124;2023-04-29T10:32:48;22.50;95.70
31735;DHT22;18313;48.518;9.124;2023-04-29T10:35:19;22.10;94.30
31735;DHT22;18313;48.518;9.124;2023-04-29T10:37:48;21.40;95.50
31735;DHT22;18313;48.518;9.124;2023-04-29T10:40:17;21.00;96.90
31735;DHT22;18313;48.518;9.124;2023-04-29T10:42:53;20.90;95.20
31735;DHT22;18313;48.518;9.124;2023-04-29T10:45:24;20.90;95.70
31735;DHT22;18313;48.518;9.124;2023-04-29T10:50:29;20.70;96.10
31735;DHT22;18313;48.518;9.124;2023-04-29T10:53:01;20.60;95.60
31735;DHT22;18313;48.518;9.124;2023-04-29T10:55:28;20.00;97.20
31735;DHT22;18313;48.518;9.124;2023-04-29T10:57:56;19.90;97.80
31735;DHT22;18313;48.518;9.124;2023-04-29T11:00:28;19.60;98.10
31735;DHT22;18313;48.518;9.124;2023-04-29T11:03:00;19.30;98.70
31735;DHT22;18313;48.518;9.124;2023-04-29T11:05:34;19.10;98.70
31735;DHT22;18313;48.518;9.124;2023-04-29T11:08:18;18.80;99.10
31735;DHT22;18313;48.518;9.124;2023-04-29T11:10:53;19.00;99.70
31735;DHT22;18313;48.518;9.124;2023-04-29T11:13:28;19.30;99.20
31735;DHT22;18313;48.518;9.124;2023-04-29T11:16:07;19.60;98.60
31735;DHT22;18313;48.518;9.124;2023-04-29T11:19:02;19.60;98.90
31735;DHT22;18313;48.518;9.124;2023-04-29T11:21:23;19.90;98.40
31735;DHT22;18313;48.518;9.124;2023-04-29T11:23:50;20.10;97.80
31735;DHT22;18313;48.518;9.124;2023-04-29T11:26:21;20.20;97.50
31735;DHT22;18313;48.518;9.124;2023-04-29T11:28:50;20.10;98.10
31735;DHT22;18313;48.518;9.124;2023-04-29T11:31:20;20.30;98.00
31735;DHT22;18313;48.518;9.124;2023-04-29T11:33:54;20.70;98.70
31735;DHT22;18313;48.518;9.124;2023-04-29T11:36:22;21.20;96.30
31735;DHT22;18313;48.518;9.124;2023-04-29T11:38:49;21.20;96.30
31735;DHT22;18313;48.518;9.124;2023-04-29T11:41:16;21.00;96.30
31735;DHT22;18313;48.518;9.124;2023-04-29T11:43:46;21.00;96.10
31735;DHT22;18313;48.518;9.124;2023-04-29T11:46:14;21.20;95.90
31735;DHT22;18313;48.518;9.124;2023-04-29T11:48:46;21.10;95.50
31735;DHT22;18313;48.518;9.124;2023-04-29T11:51:17;21.30;96.40
31735;DHT22;18313;48.518;9.124;2023-04-29T11:53:46;21.30;96.00
31735;DHT22;18313;48.518;9.124;2023-04-29T11:56:13;21.20;95.60
31735;DHT22;18313;48.518;9.124;2023-04-29T11:58:41;20.80;95.60
31735;DHT22;18313;48.518;9.124;2023-04-29T12:01:09;20.50;96.20
31735;DHT22;18313;48.518;9.124;2023-04-29T12:03:37;20.40;96.10
31735;DHT22;18313;48.518;9.124;2023-04-29T12:06:04;20.70;98.10
31735;DHT22;18313;48.518;9.124;2023-04-29T12:08:34;21.20;95.70
31735;DHT22;18313;48.518;9.124;2023-04-29T12:11:01;21.10;95.00
31735;DHT22;18313;48.518;9.124;2023-04-29T12:13:29;20.80;96.80
31735;DHT22;18313;48.518;9.124;2023-04-29T12:15:57;21.00;96.30
31735;DHT22;18313;48.518;9.124;2023-04-29T12:18:25;20.90;95.00
31735;DHT22;18313;48.518;9.124;2023-04-29T12:20:53;20.50;95.40
31735;DHT22;18313;48.518;9.124;2023-04-29T12:23:23;20.60;95.80
31735;DHT22;18313;48.518;9.124;2023-04-29T12:25:55;20.80;97.20
31735;DHT22;18313;48.518;9.124;2023-04-29T12:28:22;21.10;96.10
31735;DHT22;18313;48.518;9.124;2023-04-29T12:30:51;21.20;94.90
31735;DHT22;18313;48.518;9.124;2023-04-29T12:33:27;21.20;94.70
31735;DHT22;18313;48.518;9.124;2023-04-29T12:35:57;21.40;94.40
31735;DHT22;18313;48.518;9.124;2023-04-29T12:38:26;20.90;94.30
31735;DHT22;18313;48.518;9.124;2023-04-29T12:40:54;20.30;95.60
31735;DHT22;18313;48.518;9.124;2023-04-29T12:43:28;20.00;96.70
31735;DHT22;18313;48.518;9.124;2023-04-29T12:46:06;20.20;95.30
31735;DHT22;18313;48.518;9.124;2023-04-29T12:48:39;20.10;96.30
31735;DHT22;18313;48.518;9.124;2023-04-29T12:51:08;20.20;95.40
31735;DHT22;18313;48.518;9.124;2023-04-29T12:53:37;20.30;96.40
31735;DHT22;18313;48.518;9.124;2023-04-29T12:56:05;20.60;96.30
31735;DHT22;18313;48.518;9.124;2023-04-29T12:58:32;20.80;94.80
31735;DHT22;18313;48.518;9.124;2023-04-29T13:01:00;20.70;93.90
31735;DHT22;18313;48.518;9.124;2023-04-29T13:03:27;20.30;94.80
31735;DHT22;18313;48.518;9.124;2023-04-29T13:05:55;20.30;95.30
31735;DHT22;18313;48.518;9.124;2023-04-29T13:08:22;20.10;95.00
31735;DHT22;18313;48.518;9.124;2023-04-29T13:10:50;20.40;96.30
31735;DHT22;18313;48.518;9.124;2023-04-29T13:13:17;21.00;95.20
31735;DHT22;18313;48.518;9.124;2023-04-29T13:15:44;21.20;94.50
31735;DHT22;18313;48.518;9.124;2023-04-29T13:18:12;21.00;94.10
31735;DHT22;18313;48.518;9.124;2023-04-29T13:20:39;20.50;94.00
31735;DHT22;18313;48.518;9.124;2023-04-29T13:23:09;19.90;95.20
31735;DHT22;18313;48.518;9.124;2023-04-29T13:25:36;19.80;95.40
31735;DHT22;18313;48.518;9.124;2023-04-29T13:28:03;19.70;95.60
31735;DHT22;18313;48.518;9.124;2023-04-29T13:30:33;19.80;96.50
31735;DHT22;18313;48.518;9.124;2023-04-29T13:33:01;20.20;96.10
31735;DHT22;18313;48.518;9.124;2023-04-29T13:35:37;20.40;95.50
31735;DHT22;18313;48.518;9.124;2023-04-29T13:38:07;20.80;95.40
31735;DHT22;18313;48.518;9.124;2023-04-29T13:40:34;20.90;93.60
31735;DHT22;18313;48.518;9.124;2023-04-29T13:43:07;20.60;94.50
31735;DHT22;18313;48.518;9.124;2023-04-29T13:45:36;20.20;94.60
31735;DHT22;18313;48.518;9.124;2023-04-29T13:48:08;19.90;94.80
31735;DHT22;18313;48.518;9.124;2023-04-29T13:50:55;19.90;95.00
31735;DHT22;18313;48.518;9.124;2023-04-29T13:53:43;20.10;95.70
31735;DHT22;18313;48.518;9.124;2023-04-29T13:56:30;20.80;95.00
31735;DHT22;18313;48.518;9.124;2023-04-29T13:59:00;21.00;94.20
31735;DHT22;18313;48.518;9.124;2023-04-29T14:01:29;21.10;93.10
31735;DHT22;18313;48.518;9.124;2023-04-29T14:04:00;20.70;93.30
31735;DHT22;18313;48.518;9.124;2023-04-29T14:06:27;20.10;93.90
31735;DHT22;18313;48.518;9.124;2023-04-29T14:08:54;19.80;94.60
31735;DHT22;18313;48.518;9.124;2023-04-29T14:11:21;19.80;95.30
31735;DHT22;18313;48.518;9.124;2023-04-29T14:13:48;20.00;96.00
31735;DHT22;18313;48.518;9.124;2023-04-29T14:16:16;20.00;96.50
31735;DHT22;18313;48.518;9.124;2023-04-29T14:18:43;20.10;96.10
31735;DHT22;18313;48.518;9.124;2023-04-29T14:21:10;20.00;95.30
31735;DHT22;18313;48.518;9.124;2023-04-29T14:23:38;19.90;96.80
31735;DHT22;18313;48.518;9.124;2023-04-29T14:26:05;20.10;96.00
31735;DHT22;18313;48.518;9.124;2023-04-29T14:28:52;20.30;96.70
31735;DHT22;18313;48.518;9.124;2023-04-29T14:31:30;20.20;95.70
31735;DHT22;18313;48.518;9.124;2023-04-29T14:33:59;20.30;96.50
31735;DHT22;18313;48.518;9.124;2023-04-29T14:36:27;20.40;95.10
31735;DHT22;18313;48.518;9.124;2023-04-29T14:38:54;20.40;95.60
31735;DHT22;18313;48.518;9.124;2023-04-29T14:41:21;20.10;94.50
31735;DHT22;18313;48.518;9.124;2023-04-29T14:43:48;19.30;95.00
31735;DHT22;18313;48.518;9.124;2023-04-29T14:46:15;18.60;96.00
31735;DHT22;18313;48.518;9.124;2023-04-29T14:48:43;18.50;97.40
31735;DHT22;18313;48.518;9.124;2023-04-29T14:51:10;18.50;96.70
31735;DHT22;18313;48.518;9.124;2023-04-29T14:53:37;18.10;97.50
31735;DHT22;18313;48.518;9.124;2023-04-29T14:56:05;17.90;97.50
31735;DHT22;18313;48.518;9.124;2023-04-29T14:58:33;17.60;97.90
31735;DHT22;18313;48.518;9.124;2023-04-29T15:01:00;17.40;98.10
31735;DHT22;18313;48.518;9.124;2023-04-29T15:03:27;17.30;98.50
31735;DHT22;18313;48.518;9.124;2023-04-29T15:05:54;17.20;98.70
31735;DHT22;18313;48.518;9.124;2023-04-29T15:08:22;17.20;98.40
31735;DHT22;18313;48.518;9.124;2023-04-29T15:10:49;17.20;99.80
31735;DHT22;18313;48.518;9.124;2023-04-29T15:13:16;17.40;98.70
31735;DHT22;18313;48.518;9.124;2023-04-29T15:15:43;17.60;98.20
31735;DHT22;18313;48.518;9.124;2023-04-29T15:18:11;17.70;98.70
31735;DHT22;18313;48.518;9.124;2023-04-29T15:20:38;17.80;98.50
31735;DHT22;18313;48.518;9.124;2023-04-29T15:23:07;18.00;98.80
31735;DHT22;18313;48.518;9.124;2023-04-29T15:25:34;18.00;98.00
31735;DHT22;18313;48.518;9.124;2023-04-29T15:28:02;17.80;98.00
31735;DHT22;18313;48.518;9.124;2023-04-29T15:30:31;17.60;98.60
31735;DHT22;18313;48.518;9.124;2023-04-29T15:32:58;17.90;99.20
31735;DHT22;18313;48.518;9.124;2023-04-29T15:35:25;18.20;98.40
31735;DHT22;18313;48.518;9.124;2023-04-29T15:37:53;18.30;98.10
31735;DHT22;18313;48.518;9.124;2023-04-29T15:40:20;18.20;97.30
31735;DHT22;18313;48.518;9.124;2023-04-29T15:42:48;17.90;98.10
31735;DHT22;18313;48.518;9.124;2023-04-29T15:45:15;17.80;97.90
31735;DHT22;18313;48.518;9.124;2023-04-29T15:47:42;17.60;98.40
31735;DHT22;18313;48.518;9.124;2023-04-29T15:50:10;17.30;98.20
31735;DHT22;18313;48.518;9.124;2023-04-29T15:52:37;17.10;99.00
31735;DHT22;18313;48.518;9.124;2023-04-29T15:55:07;17.10;99.10
31735;DHT22;18313;48.518;9.124;2023-04-29T15:57:34;17.00;99.20